createdAt,value
2022-10-21T00:00:39.803Z,13.33
2022-10-21T00:03:06.805Z,13.30
2022-10-21T00:05:33.729Z,13.02
2022-10-21T00:08:00.546Z,13.28
2022-10-21T00:10:27.360Z,13.23
2022-10-21T00:12:54.229Z,13.08
2022-10-21T00:15:20.960Z,13.12
2022-10-21T00:17:47.810Z,13.16
2022-10-21T00:20:14.695Z,13.03
2022-10-21T00:22:41.528Z,13.06
2022-10-21T00:25:09.275Z,12.87
2022-10-21T00:27:36.609Z,12.83
2022-10-21T00:30:07.034Z,12.86
2022-10-21T00:32:34.255Z,13.04
2022-10-21T00:35:01.117Z,13.04
2022-10-21T00:37:30.844Z,13.04
2022-10-21T00:39:58.169Z,13.03
2022-10-21T00:42:32.329Z,13.02
2022-10-21T00:45:05.249Z,12.89
2022-10-21T00:47:38.765Z,12.87
2022-10-21T00:50:12.547Z,13.01
2022-10-21T00:52:39.672Z,13.01
2022-10-21T00:55:07.258Z,13.10
2022-10-21T00:57:35.681Z,12.97
2022-10-21T01:00:06.088Z,12.93
2022-10-21T01:02:32.911Z,13.02
2022-10-21T01:05:02.440Z,13.01
2022-10-21T01:07:29.589Z,12.85
2022-10-21T01:09:56.524Z,12.92
2022-10-21T01:12:33.702Z,13.01
2022-10-21T01:15:05.946Z,12.97
2022-10-21T01:17:55.678Z,12.89
2022-10-21T01:20:50.325Z,12.84
2022-10-21T01:23:50.157Z,12.39
2022-10-21T01:26:41.432Z,12.57
2022-10-21T01:29:19.790Z,12.54
2022-10-21T01:31:49.612Z,12.65
2022-10-21T01:34:16.284Z,12.43
2022-10-21T01:36:59.891Z,12.62
2022-10-21T01:39:38.013Z,12.77
2022-10-21T01:42:37.910Z,12.72
2022-10-21T01:45:27.688Z,12.55
2022-10-21T01:47:58.786Z,12.78
2022-10-21T01:50:28.669Z,12.75
2022-10-21T01:53:00.322Z,12.51
2022-10-21T01:55:31.632Z,12.50
2022-10-21T01:58:07.321Z,12.39
2022-10-21T02:00:37.142Z,12.34
2022-10-21T02:03:09.008Z,12.41
2022-10-21T02:05:36.115Z,12.37
2022-10-21T02:08:03.846Z,12.25
2022-10-21T02:10:36.805Z,12.45
2022-10-21T02:13:06.162Z,12.46
2022-10-21T02:15:34.337Z,12.38
2022-10-21T02:18:08.017Z,12.45
2022-10-21T02:20:42.266Z,12.27
2022-10-21T02:23:13.101Z,12.18
2022-10-21T02:25:42.856Z,12.28
2022-10-21T02:28:11.552Z,12.12
2022-10-21T02:30:55.850Z,12.18
2022-10-21T02:33:59.070Z,12.16
2022-10-21T02:36:43.087Z,12.13
2022-10-21T02:39:25.031Z,12.15
2022-10-21T02:41:55.241Z,12.03
2022-10-21T02:44:22.915Z,12.04
2022-10-21T02:46:50.224Z,12.17
2022-10-21T02:49:16.996Z,12.02
2022-10-21T02:51:45.551Z,12.12
2022-10-21T02:54:12.807Z,12.01
2022-10-21T02:56:39.606Z,12.01
2022-10-21T02:59:06.536Z,11.68
2022-10-21T03:01:33.262Z,11.77
2022-10-21T03:04:00.198Z,11.80
2022-10-21T03:06:26.985Z,11.69
2022-10-21T03:08:53.920Z,11.77
2022-10-21T03:11:20.993Z,11.84
2022-10-21T03:13:47.728Z,11.80
2022-10-21T03:16:14.571Z,11.96
2022-10-21T03:18:41.332Z,11.85
2022-10-21T03:21:08.224Z,11.31
2022-10-21T03:23:34.973Z,11.73
2022-10-21T03:26:01.883Z,11.69
2022-10-21T03:28:30.401Z,11.63
2022-10-21T03:30:57.443Z,11.60
2022-10-21T03:33:24.245Z,11.67
2022-10-21T03:35:50.976Z,11.54
2022-10-21T03:38:17.851Z,11.64
2022-10-21T03:40:44.581Z,11.58
2022-10-21T03:43:11.485Z,11.43
2022-10-21T03:45:38.119Z,11.41
2022-10-21T03:48:05.010Z,11.21
2022-10-21T03:50:31.814Z,11.16
2022-10-21T03:52:59.874Z,11.47
2022-10-21T03:55:27.372Z,11.30
2022-10-21T03:57:54.393Z,10.96
2022-10-21T04:00:21.533Z,11.06
2022-10-21T04:02:49.036Z,10.52
2022-10-21T04:05:16.009Z,10.58
2022-10-21T04:07:42.907Z,10.93
2022-10-21T04:10:10.133Z,10.10
2022-10-21T04:12:37.740Z,10.39
2022-10-21T04:15:06.353Z,10.71
2022-10-21T04:17:33.331Z,10.66
2022-10-21T04:20:00.213Z,10.75
2022-10-21T04:22:27.193Z,11.04
2022-10-21T04:24:53.914Z,11.02
2022-10-21T04:27:20.718Z,11.22
2022-10-21T04:29:47.367Z,11.09
2022-10-21T04:32:14.279Z,11.11
2022-10-21T04:34:40.959Z,11.00
2022-10-21T04:37:07.783Z,11.15
2022-10-21T04:39:35.609Z,11.20
2022-10-21T04:42:02.554Z,11.13
2022-10-21T04:44:29.409Z,11.50
2022-10-21T04:46:56.382Z,11.48
2022-10-21T04:49:23.205Z,11.29
2022-10-21T04:51:50.075Z,11.16
2022-10-21T04:54:16.935Z,11.15
2022-10-21T04:56:43.834Z,11.06
2022-10-21T04:59:10.612Z,11.31
2022-10-21T05:01:37.638Z,11.48
2022-10-21T05:04:04.469Z,10.61
2022-10-21T05:06:31.907Z,10.65
2022-10-21T05:08:58.766Z,10.61
2022-10-21T05:11:25.646Z,10.82
2022-10-21T05:13:53.389Z,11.29
2022-10-21T05:16:20.117Z,11.47
2022-10-21T05:18:47.104Z,11.55
2022-10-21T05:21:13.846Z,11.40
2022-10-21T05:23:40.814Z,11.58
2022-10-21T05:26:07.691Z,11.50
2022-10-21T05:28:34.576Z,11.81
2022-10-21T05:31:01.308Z,11.94
2022-10-21T05:33:28.622Z,11.93
2022-10-21T05:36:01.864Z,11.95
2022-10-21T05:38:29.426Z,10.99
2022-10-21T05:40:56.667Z,11.58
2022-10-21T05:43:24.092Z,11.91
2022-10-21T05:45:50.940Z,11.65
2022-10-21T05:48:18.394Z,11.93
2022-10-21T05:50:46.765Z,12.26
2022-10-21T05:53:14.449Z,12.36
2022-10-21T05:55:41.171Z,11.53
2022-10-21T05:58:08.096Z,11.90
2022-10-21T06:00:35.341Z,11.76
2022-10-21T06:03:02.215Z,12.23
2022-10-21T06:05:29.035Z,12.16
2022-10-21T06:07:57.017Z,11.76
2022-10-21T06:10:28.159Z,12.04
2022-10-21T06:12:56.140Z,12.12
2022-10-21T06:15:22.814Z,12.34
2022-10-21T06:17:51.191Z,12.16
2022-10-21T06:20:18.360Z,12.50
2022-10-21T06:22:45.164Z,11.70
2022-10-21T06:25:12.083Z,11.98
2022-10-21T06:27:39.103Z,12.04
2022-10-21T06:30:06.659Z,11.72
2022-10-21T06:32:33.453Z,11.62
2022-10-21T06:35:00.138Z,12.48
2022-10-21T06:37:26.845Z,12.38
2022-10-21T06:39:53.782Z,12.48
2022-10-21T06:42:20.606Z,12.74
2022-10-21T06:44:47.726Z,11.85
2022-10-21T06:47:14.488Z,11.95
2022-10-21T06:49:41.348Z,11.91
2022-10-21T06:52:08.275Z,12.20
2022-10-21T06:54:35.212Z,12.12
2022-10-21T06:57:01.961Z,13.03
2022-10-21T06:59:29.047Z,12.82
2022-10-21T07:02:00.113Z,13.24
2022-10-21T07:04:27.300Z,12.96
2022-10-21T07:06:53.991Z,12.81
2022-10-21T07:09:20.813Z,13.23
2022-10-21T07:11:47.698Z,13.05
2022-10-21T07:14:14.533Z,13.53
2022-10-21T07:16:41.406Z,13.35
2022-10-21T07:19:10.023Z,13.90
2022-10-21T07:21:37.010Z,13.97
2022-10-21T07:24:03.786Z,13.23
2022-10-21T07:26:33.174Z,13.31
2022-10-21T07:29:01.129Z,14.05
2022-10-21T07:31:31.489Z,13.76
2022-10-21T07:34:00.806Z,14.09
2022-10-21T07:36:30.402Z,14.44
2022-10-21T07:39:02.731Z,14.38
2022-10-21T07:41:32.769Z,14.77
2022-10-21T07:44:00.174Z,14.67
2022-10-21T07:46:27.431Z,15.31
2022-10-21T07:48:54.275Z,14.34
2022-10-21T07:51:27.006Z,13.97
2022-10-21T07:53:59.100Z,13.91
2022-10-21T07:56:29.556Z,14.23
2022-10-21T07:58:57.121Z,14.74
2022-10-21T08:01:24.595Z,15.39
2022-10-21T08:03:53.949Z,16.11
2022-10-21T08:06:21.216Z,15.46
2022-10-21T08:08:48.190Z,16.47
2022-10-21T08:11:26.538Z,17.24
2022-10-21T08:13:54.295Z,17.07
2022-10-21T08:16:21.562Z,16.52
2022-10-21T08:18:48.819Z,16.62
2022-10-21T08:21:15.733Z,17.48
2022-10-21T08:23:42.455Z,17.93
2022-10-21T08:26:14.676Z,16.48
2022-10-21T08:28:41.878Z,16.44
2022-10-21T08:31:12.675Z,16.15
2022-10-21T08:33:39.653Z,17.39
2022-10-21T08:36:14.649Z,16.82
2022-10-21T08:38:41.683Z,17.32
2022-10-21T08:41:31.478Z,17.17
2022-10-21T08:44:13.456Z,17.79
2022-10-21T08:46:51.771Z,17.13
2022-10-21T08:49:28.537Z,17.61
2022-10-21T08:52:03.552Z,18.40
2022-10-21T08:54:42.482Z,18.11
2022-10-21T08:57:11.933Z,17.46
2022-10-21T08:59:42.121Z,18.17
2022-10-21T09:02:11.948Z,18.78
2022-10-21T09:05:03.110Z,17.49
2022-10-21T09:07:44.060Z,17.94
2022-10-21T09:10:28.425Z,18.15
2022-10-21T09:13:12.049Z,18.86
2022-10-21T09:16:00.384Z,18.27
2022-10-21T09:18:41.989Z,18.25
2022-10-21T09:21:46.179Z,18.10
2022-10-21T09:24:19.629Z,18.54
2022-10-21T09:26:50.436Z,18.84
2022-10-21T09:29:26.972Z,19.13
2022-10-21T09:32:02.411Z,18.83
2022-10-21T09:34:35.154Z,19.43
2022-10-21T09:37:06.244Z,19.54
2022-10-21T09:40:19.596Z,19.85
2022-10-21T09:42:50.722Z,19.65
2022-10-21T09:45:26.947Z,20.05
2022-10-21T09:47:59.897Z,20.22
2022-10-21T09:50:28.178Z,20.74
2022-10-21T09:53:13.527Z,20.02
2022-10-21T09:55:43.634Z,19.83
2022-10-21T09:58:25.118Z,19.93
2022-10-21T10:00:52.269Z,20.07
2022-10-21T10:03:41.926Z,20.82
2022-10-21T10:06:08.840Z,19.92
2022-10-21T10:08:47.660Z,19.63
2022-10-21T10:11:17.903Z,20.13
2022-10-21T10:13:50.266Z,20.54
2022-10-21T10:16:30.178Z,20.84
2022-10-21T10:19:18.585Z,19.75
2022-10-21T10:21:48.041Z,20.37
2022-10-21T10:24:20.287Z,20.71
2022-10-21T10:26:49.085Z,20.01
2022-10-21T10:29:15.776Z,20.05
2022-10-21T10:31:49.610Z,20.16
2022-10-21T10:34:53.086Z,20.68
2022-10-21T10:37:26.240Z,20.30
2022-10-21T10:39:58.072Z,20.45
2022-10-21T10:42:33.535Z,20.73
2022-10-21T10:45:13.354Z,20.44
2022-10-21T10:47:48.534Z,20.55
2022-10-21T10:50:40.197Z,21.23
2022-10-21T10:53:21.373Z,21.33
2022-10-21T10:55:57.835Z,21.58
2022-10-21T10:58:28.015Z,21.01
2022-10-21T11:00:59.585Z,20.85
2022-10-21T11:03:39.108Z,21.02
2022-10-21T11:06:17.232Z,20.74
2022-10-21T11:08:50.450Z,21.23
2022-10-21T11:11:38.248Z,21.79
2022-10-21T11:14:16.427Z,21.54
2022-10-21T11:17:06.892Z,21.51
2022-10-21T11:19:55.103Z,20.76
2022-10-21T11:22:52.622Z,20.54
2022-10-21T11:25:33.276Z,21.59
2022-10-21T11:28:17.921Z,20.89
2022-10-21T11:31:09.190Z,21.41
2022-10-21T11:33:54.953Z,21.32
2022-10-21T11:36:21.844Z,20.79
2022-10-21T11:39:03.695Z,21.81
2022-10-21T11:41:31.022Z,22.46
2022-10-21T11:44:19.954Z,22.49
2022-10-21T11:47:38.967Z,23.17
2022-10-21T11:50:26.660Z,22.80
2022-10-21T11:53:14.930Z,23.04
2022-10-21T11:55:53.799Z,23.89
2022-10-21T11:58:39.556Z,23.20
2022-10-21T12:01:06.373Z,23.29
2022-10-21T12:03:51.408Z,22.81
2022-10-21T12:06:26.119Z,23.35
2022-10-21T12:09:01.693Z,23.44
2022-10-21T12:11:36.299Z,24.17
2022-10-21T12:14:14.948Z,24.03
2022-10-21T12:16:41.998Z,25.25
2022-10-21T12:19:13.387Z,24.30
2022-10-21T12:21:44.931Z,24.52
2022-10-21T12:24:33.962Z,25.09
2022-10-21T12:27:11.818Z,26.02
2022-10-21T12:29:47.975Z,26.97
2022-10-21T12:32:29.648Z,27.55
2022-10-21T12:34:56.754Z,26.59
2022-10-21T12:37:42.274Z,28.16
2022-10-21T12:40:17.476Z,28.28
2022-10-21T12:42:57.638Z,27.59
2022-10-21T12:45:34.696Z,28.01
2022-10-21T12:48:06.044Z,28.04
2022-10-21T12:50:34.326Z,28.24
2022-10-21T12:53:15.146Z,28.93
2022-10-21T12:55:50.083Z,29.40
2022-10-21T12:58:36.234Z,28.71
2022-10-21T13:01:05.875Z,28.43
2022-10-21T13:03:51.327Z,29.22
2022-10-21T13:06:54.640Z,29.47
2022-10-21T13:09:39.877Z,29.18
2022-10-21T13:12:09.530Z,29.56
2022-10-21T13:14:47.043Z,30.41
2022-10-21T13:17:20.493Z,30.60
2022-10-21T13:19:55.229Z,30.38
2022-10-21T13:22:42.150Z,28.89
2022-10-21T13:25:19.571Z,29.80
2022-10-21T13:28:12.343Z,29.72
2022-10-21T13:30:57.037Z,28.66
2022-10-21T13:33:31.313Z,28.45
2022-10-21T13:36:14.635Z,28.66
2022-10-21T13:38:55.449Z,28.76
2022-10-21T13:41:28.665Z,29.80
2022-10-21T13:43:57.607Z,27.82
2022-10-21T13:46:37.841Z,29.16
2022-10-21T13:49:27.137Z,28.74
2022-10-21T13:51:54.416Z,28.49
2022-10-21T13:54:21.188Z,27.41
2022-10-21T13:56:48.138Z,27.02
2022-10-21T13:59:26.523Z,26.88
2022-10-21T14:01:55.541Z,26.16
2022-10-21T14:04:30.587Z,26.07
2022-10-21T14:07:04.671Z,25.84
2022-10-21T14:09:45.579Z,25.97
2022-10-21T14:12:24.390Z,25.78
2022-10-21T14:14:54.161Z,25.66
2022-10-21T14:17:27.249Z,25.89
2022-10-21T14:20:01.676Z,26.31
2022-10-21T14:22:29.342Z,26.23
2022-10-21T14:24:58.996Z,25.81
2022-10-21T14:27:29.249Z,25.36
2022-10-21T14:29:58.120Z,25.19
2022-10-21T14:32:27.261Z,24.47
2022-10-21T14:35:22.636Z,24.51
2022-10-21T14:38:01.829Z,23.94
2022-10-21T14:40:32.951Z,23.38
2022-10-21T14:43:01.098Z,23.35
2022-10-21T14:45:34.091Z,23.55
2022-10-21T14:48:22.065Z,23.61
2022-10-21T14:50:54.827Z,23.52
2022-10-21T14:53:24.004Z,23.48
2022-10-21T14:55:57.171Z,23.29
2022-10-21T14:58:34.649Z,23.28
2022-10-21T15:01:11.487Z,23.16
2022-10-21T15:03:47.214Z,23.14
2022-10-21T15:06:18.553Z,23.03
2022-10-21T15:09:00.400Z,22.92
2022-10-21T15:11:28.942Z,23.04
2022-10-21T15:14:00.276Z,23.04
2022-10-21T15:16:30.446Z,22.94
2022-10-21T15:18:58.983Z,22.82
2022-10-21T15:21:31.884Z,22.71
2022-10-21T15:23:59.334Z,22.67
2022-10-21T15:26:29.238Z,22.65
2022-10-21T15:28:56.776Z,22.55
2022-10-21T15:31:26.055Z,22.55
2022-10-21T15:33:56.427Z,22.28
2022-10-21T15:36:24.410Z,21.06
2022-10-21T15:38:51.198Z,21.28
2022-10-21T15:41:24.000Z,21.06
2022-10-21T15:44:01.979Z,20.89
2022-10-21T15:46:30.488Z,21.25
2022-10-21T15:49:00.824Z,21.06
2022-10-21T15:51:27.860Z,21.03
2022-10-21T15:53:54.573Z,20.90
2022-10-21T15:56:21.292Z,20.92
2022-10-21T15:58:48.168Z,20.86
2022-10-21T16:01:17.598Z,20.44
2022-10-21T16:03:45.890Z,20.55
2022-10-21T16:06:18.444Z,20.21
2022-10-21T16:08:45.538Z,20.13
2022-10-21T16:11:25.524Z,20.38
2022-10-21T16:14:02.140Z,20.39
2022-10-21T16:16:29.096Z,20.35
2022-10-21T16:18:56.414Z,20.24
2022-10-21T16:21:23.529Z,20.29
2022-10-21T16:23:50.535Z,20.09
2022-10-21T16:26:22.636Z,19.80
2022-10-21T16:28:51.374Z,19.97
2022-10-21T16:31:19.553Z,20.12
2022-10-21T16:33:46.547Z,19.77
2022-10-21T16:36:16.806Z,20.07
2022-10-21T16:38:46.603Z,20.13
2022-10-21T16:41:16.891Z,20.00
2022-10-21T16:43:45.680Z,20.00
2022-10-21T16:46:26.492Z,19.76
2022-10-21T16:48:54.152Z,19.73
2022-10-21T16:51:23.754Z,19.45
2022-10-21T16:53:50.875Z,19.42
2022-10-21T16:56:18.236Z,19.21
2022-10-21T16:58:45.391Z,19.29
2022-10-21T17:01:20.015Z,19.28
2022-10-21T17:03:47.062Z,19.24
2022-10-21T17:06:22.269Z,19.29
2022-10-21T17:08:51.022Z,19.34
2022-10-21T17:11:33.483Z,19.19
2022-10-21T17:14:01.456Z,19.12
2022-10-21T17:16:29.903Z,19.04
2022-10-21T17:18:57.970Z,19.09
2022-10-21T17:21:31.364Z,19.10
2022-10-21T17:24:00.891Z,19.01
2022-10-21T17:26:30.228Z,18.69
2022-10-21T17:28:59.009Z,18.81
2022-10-21T17:31:28.732Z,18.69
2022-10-21T17:33:58.436Z,18.64
2022-10-21T17:36:25.885Z,18.54
2022-10-21T17:38:52.706Z,18.49
2022-10-21T17:41:20.510Z,18.31
2022-10-21T17:43:48.262Z,18.20
2022-10-21T17:46:21.581Z,18.18
2022-10-21T17:48:52.364Z,18.02
2022-10-21T17:51:19.836Z,18.10
2022-10-21T17:53:49.263Z,18.01
2022-10-21T17:56:17.007Z,18.01
2022-10-21T17:58:43.910Z,17.97
2022-10-21T18:01:13.117Z,17.90
2022-10-21T18:03:42.061Z,17.80
2022-10-21T18:06:11.222Z,17.82
2022-10-21T18:08:38.454Z,17.78
2022-10-21T18:11:14.434Z,17.71
2022-10-21T18:13:42.743Z,17.45
2022-10-21T18:16:21.491Z,17.32
2022-10-21T18:18:49.984Z,17.25
2022-10-21T18:21:19.342Z,17.44
2022-10-21T18:23:50.636Z,17.16
2022-10-21T18:26:21.207Z,16.91
2022-10-21T18:28:59.804Z,17.01
2022-10-21T18:31:29.968Z,16.79
2022-10-21T18:33:58.257Z,16.77
2022-10-21T18:36:25.754Z,17.03
2022-10-21T18:38:53.478Z,17.17
2022-10-21T18:41:21.769Z,16.71
2022-10-21T18:43:59.980Z,17.01
2022-10-21T18:46:27.785Z,17.07
2022-10-21T18:48:54.809Z,17.26
2022-10-21T18:51:23.826Z,17.12
2022-10-21T18:53:52.761Z,17.27
2022-10-21T18:56:21.258Z,17.17
2022-10-21T18:58:49.991Z,17.30
2022-10-21T19:01:18.400Z,17.27
2022-10-21T19:03:45.914Z,17.10
2022-10-21T19:06:34.254Z,16.98
2022-10-21T19:09:02.260Z,17.14
2022-10-21T19:11:29.508Z,17.09
2022-10-21T19:13:56.599Z,17.22
2022-10-21T19:16:23.506Z,16.93
2022-10-21T19:18:50.355Z,16.12
2022-10-21T19:21:19.507Z,16.35
2022-10-21T19:23:46.853Z,16.62
2022-10-21T19:26:14.198Z,16.67
2022-10-21T19:28:41.429Z,16.08
2022-10-21T19:31:11.547Z,16.06
2022-10-21T19:33:39.004Z,16.35
2022-10-21T19:36:06.692Z,16.28
2022-10-21T19:38:50.525Z,16.43
2022-10-21T19:41:19.952Z,16.21
2022-10-21T19:43:48.121Z,16.29
2022-10-21T19:46:21.181Z,16.61
2022-10-21T19:48:50.908Z,16.54
2022-10-21T19:51:20.302Z,16.59
2022-10-21T19:53:48.759Z,16.79
2022-10-21T19:56:16.680Z,16.57
2022-10-21T19:58:47.367Z,16.22
2022-10-21T20:01:17.517Z,16.38
2022-10-21T20:03:46.127Z,16.14
2022-10-21T20:06:16.205Z,16.12
2022-10-21T20:08:43.152Z,15.92
2022-10-21T20:11:13.064Z,16.07
2022-10-21T20:13:40.780Z,15.75
2022-10-21T20:16:08.532Z,15.77
2022-10-21T20:18:35.234Z,15.81
2022-10-21T20:21:07.467Z,15.99
2022-10-21T20:23:34.680Z,15.71
2022-10-21T20:26:01.736Z,15.90
2022-10-21T20:28:29.708Z,16.02
2022-10-21T20:30:56.612Z,15.96
2022-10-21T20:33:23.676Z,16.14
2022-10-21T20:35:50.420Z,16.10
2022-10-21T20:38:17.236Z,15.86
2022-10-21T20:40:43.949Z,16.08
2022-10-21T20:43:11.363Z,15.92
2022-10-21T20:45:38.190Z,15.81
2022-10-21T20:48:05.136Z,15.98
2022-10-21T20:50:31.813Z,15.86
2022-10-21T20:52:58.771Z,15.89
2022-10-21T20:55:25.548Z,15.86
2022-10-21T20:57:52.229Z,15.65
2022-10-21T21:00:19.275Z,15.65
2022-10-21T21:02:47.875Z,15.23
2022-10-21T21:05:16.769Z,15.25
2022-10-21T21:07:43.824Z,15.33
2022-10-21T21:10:10.710Z,15.35
2022-10-21T21:12:37.937Z,15.58
2022-10-21T21:15:05.268Z,15.67
2022-10-21T21:17:32.003Z,15.69
2022-10-21T21:19:59.011Z,15.68
2022-10-21T21:22:25.820Z,15.57
2022-10-21T21:24:52.656Z,15.47
2022-10-21T21:27:19.496Z,15.39
2022-10-21T21:29:46.295Z,13.97
2022-10-21T21:32:13.069Z,13.45
2022-10-21T21:34:39.942Z,14.21
2022-10-21T21:37:06.726Z,14.13
2022-10-21T21:39:33.489Z,14.57
2022-10-21T21:42:00.387Z,14.80
2022-10-21T21:44:27.280Z,14.88
2022-10-21T21:46:54.061Z,14.94
2022-10-21T21:49:20.767Z,14.63
2022-10-21T21:51:47.616Z,14.40
2022-10-21T21:54:14.569Z,14.39
2022-10-21T21:56:41.288Z,14.78
2022-10-21T21:59:08.354Z,14.64
2022-10-21T22:01:35.237Z,14.63
2022-10-21T22:04:02.510Z,14.45
2022-10-21T22:06:32.636Z,13.32
2022-10-21T22:09:00.002Z,13.85
2022-10-21T22:11:32.273Z,13.68
2022-10-21T22:13:59.467Z,13.87
2022-10-21T22:16:30.163Z,13.90
2022-10-21T22:18:59.865Z,12.84
2022-10-21T22:21:29.531Z,12.94
2022-10-21T22:23:56.491Z,13.28
2022-10-21T22:26:23.540Z,13.77
2022-10-21T22:28:50.634Z,13.81
2022-10-21T22:31:18.245Z,13.58
2022-10-21T22:33:45.605Z,13.50
2022-10-21T22:36:12.400Z,13.14
2022-10-21T22:38:39.276Z,13.23
2022-10-21T22:41:09.947Z,13.47
2022-10-21T22:43:39.205Z,13.10
2022-10-21T22:46:21.425Z,13.21
2022-10-21T22:48:52.938Z,13.23
2022-10-21T22:51:19.782Z,13.05
2022-10-21T22:53:50.792Z,13.03
2022-10-21T22:56:22.084Z,13.13
2022-10-21T22:58:48.741Z,13.60
2022-10-21T23:01:15.451Z,13.46
2022-10-21T23:03:42.295Z,13.48
2022-10-21T23:06:09.168Z,13.93
2022-10-21T23:08:35.945Z,14.01
2022-10-21T23:11:02.774Z,13.98
2022-10-21T23:13:29.521Z,14.17
2022-10-21T23:15:56.311Z,13.90
2022-10-21T23:18:23.166Z,13.95
2022-10-21T23:20:50.165Z,13.94
2022-10-21T23:23:16.922Z,13.92
2022-10-21T23:25:43.851Z,14.04
2022-10-21T23:28:10.959Z,14.14
2022-10-21T23:30:38.503Z,14.03
2022-10-21T23:33:05.286Z,13.93
2022-10-21T23:35:32.640Z,14.02
2022-10-21T23:37:59.671Z,14.02
2022-10-21T23:40:27.809Z,13.83
2022-10-21T23:42:54.605Z,13.90
2022-10-21T23:45:21.527Z,13.68
2022-10-21T23:47:48.361Z,13.76
2022-10-21T23:50:15.912Z,13.85
2022-10-21T23:52:42.800Z,13.84
2022-10-21T23:55:10.071Z,13.83
2022-10-21T23:57:37.110Z,13.82
